sensor_id;sensor_type;location;lat;lon;timestamp;P1;durP1;ratioP1;P2;durP2;ratioP2
35530;SDS011;21637;53.352;-6.356;2023-10-09T00:00:18;7.97;;;5.25;;
35530;SDS011;21637;53.352;-6.356;2023-10-09T00:03:04;10.85;;;5.60;;
35530;SDS011;21637;53.352;-6.356;2023-10-09T00:05:31;10.15;;;4.82;;
35530;SDS011;21637;53.352;-6.356;2023-10-09T00:08:09;8.73;;;5.82;;
35530;SDS011;21637;53.352;-6.356;2023-10-09T00:10:41;9.18;;;5.55;;
35530;SDS011;21637;53.352;-6.356;2023-10-09T00:13:20;8.32;;;5.38;;
35530;SDS011;21637;53.352;-6.356;2023-10-09T00:15:53;8.27;;;5.60;;
35530;SDS011;21637;53.352;-6.356;2023-10-09T00:18:25;9.50;;;5.53;;
35530;SDS011;21637;53.352;-6.356;2023-10-09T00:20:55;10.05;;;5.65;;
35530;SDS011;21637;53.352;-6.356;2023-10-09T00:23:25;6.78;;;5.00;;
35530;SDS011;21637;53.352;-6.356;2023-10-09T00:25:52;8.48;;;5.20;;
35530;SDS011;21637;53.352;-6.356;2023-10-09T00:28:39;7.38;;;5.50;;
35530;SDS011;21637;53.352;-6.356;2023-10-09T00:31:12;12.25;;;5.85;;
35530;SDS011;21637;53.352;-6.356;2023-10-09T00:33:44;6.45;;;4.78;;
35530;SDS011;21637;53.352;-6.356;2023-10-09T00:36:10;9.88;;;5.78;;
35530;SDS011;21637;53.352;-6.356;2023-10-09T00:38:38;8.77;;;5.40;;
35530;SDS011;21637;53.352;-6.356;2023-10-09T00:41:17;8.00;;;5.47;;
35530;SDS011;21637;53.352;-6.356;2023-10-09T00:43:46;7.47;;;4.60;;
35530;SDS011;21637;53.352;-6.356;2023-10-09T00:46:14;10.73;;;5.38;;
35530;SDS011;21637;53.352;-6.356;2023-10-09T00:48:45;9.18;;;5.07;;
35530;SDS011;21637;53.352;-6.356;2023-10-09T00:51:18;9.18;;;4.80;;
35530;SDS011;21637;53.352;-6.356;2023-10-09T00:53:52;7.28;;;4.60;;
35530;SDS011;21637;53.352;-6.356;2023-10-09T00:56:32;7.50;;;4.72;;
35530;SDS011;21637;53.352;-6.356;2023-10-09T00:59:09;8.57;;;5.20;;
35530;SDS011;21637;53.352;-6.356;2023-10-09T01:01:42;7.85;;;5.03;;
35530;SDS011;21637;53.352;-6.356;2023-10-09T01:04:21;5.47;;;4.88;;
35530;SDS011;21637;53.352;-6.356;2023-10-09T01:06:47;10.02;;;5.20;;
35530;SDS011;21637;53.352;-6.356;2023-10-09T01:09:29;8.27;;;5.05;;
35530;SDS011;21637;53.352;-6.356;2023-10-09T01:12:01;7.22;;;4.40;;
35530;SDS011;21637;53.352;-6.356;2023-10-09T01:14:27;5.95;;;4.53;;
35530;SDS011;21637;53.352;-6.356;2023-10-09T01:16:53;5.75;;;4.60;;
35530;SDS011;21637;53.352;-6.356;2023-10-09T01:19:19;7.30;;;4.28;;
35530;SDS011;21637;53.352;-6.356;2023-10-09T01:21:52;7.43;;;5.00;;
35530;SDS011;21637;53.352;-6.356;2023-10-09T01:24:18;7.93;;;5.47;;
35530;SDS011;21637;53.352;-6.356;2023-10-09T01:26:45;8.07;;;5.05;;
35530;SDS011;21637;53.352;-6.356;2023-10-09T01:31:44;7.13;;;5.22;;
35530;SDS011;21637;53.352;-6.356;2023-10-09T01:34:20;8.30;;;5.25;;
35530;SDS011;21637;53.352;-6.356;2023-10-09T01:36:50;7.05;;;5.22;;
35530;SDS011;21637;53.352;-6.356;2023-10-09T01:39:19;11.80;;;5.47;;
35530;SDS011;21637;53.352;-6.356;2023-10-09T01:42:04;10.18;;;5.32;;
35530;SDS011;21637;53.352;-6.356;2023-10-09T01:44:31;7.97;;;5.63;;
35530;SDS011;21637;53.352;-6.356;2023-10-09T01:47:04;8.85;;;5.60;;
35530;SDS011;21637;53.352;-6.356;2023-10-09T01:49:36;8.07;;;4.85;;
35530;SDS011;21637;53.352;-6.356;2023-10-09T01:52:06;7.25;;;5.30;;
35530;SDS011;21637;53.352;-6.356;2023-10-09T01:54:35;6.75;;;4.45;;
35530;SDS011;21637;53.352;-6.356;2023-10-09T01:57:06;9.55;;;5.60;;
35530;SDS011;21637;53.352;-6.356;2023-10-09T01:59:47;8.88;;;5.28;;
35530;SDS011;21637;53.352;-6.356;2023-10-09T02:02:15;7.18;;;4.90;;
35530;SDS011;21637;53.352;-6.356;2023-10-09T02:04:51;7.68;;;5.25;;
35530;SDS011;21637;53.352;-6.356;2023-10-09T02:07:18;8.18;;;5.57;;
35530;SDS011;21637;53.352;-6.356;2023-10-09T02:09:52;7.55;;;5.22;;
35530;SDS011;21637;53.352;-6.356;2023-10-09T02:12:19;9.43;;;5.88;;
35530;SDS011;21637;53.352;-6.356;2023-10-09T02:14:47;7.95;;;5.32;;
35530;SDS011;21637;53.352;-6.356;2023-10-09T02:17:13;9.20;;;5.25;;
35530;SDS011;21637;53.352;-6.356;2023-10-09T02:19:45;11.07;;;5.65;;
35530;SDS011;21637;53.352;-6.356;2023-10-09T02:22:14;7.47;;;5.10;;
35530;SDS011;21637;53.352;-6.356;2023-10-09T02:24:42;10.40;;;5.53;;
35530;SDS011;21637;53.352;-6.356;2023-10-09T02:27:16;10.15;;;6.10;;
35530;SDS011;21637;53.352;-6.356;2023-10-09T02:30:05;10.93;;;5.82;;
35530;SDS011;21637;53.352;-6.356;2023-10-09T02:32:42;7.90;;;5.93;;
35530;SDS011;21637;53.352;-6.356;2023-10-09T02:35:10;7.35;;;5.50;;
35530;SDS011;21637;53.352;-6.356;2023-10-09T02:37:54;9.20;;;5.68;;
35530;SDS011;21637;53.352;-6.356;2023-10-09T02:40:24;9.50;;;5.93;;
35530;SDS011;21637;53.352;-6.356;2023-10-09T02:42:56;9.73;;;5.75;;
35530;SDS011;21637;53.352;-6.356;2023-10-09T02:45:23;7.70;;;5.60;;
35530;SDS011;21637;53.352;-6.356;2023-10-09T02:47:49;8.52;;;5.97;;
35530;SDS011;21637;53.352;-6.356;2023-10-09T02:50:16;11.43;;;5.90;;
35530;SDS011;21637;53.352;-6.356;2023-10-09T02:52:48;10.10;;;6.13;;
35530;SDS011;21637;53.352;-6.356;2023-10-09T02:55:24;12.13;;;6.55;;
35530;SDS011;21637;53.352;-6.356;2023-10-09T02:57:52;12.80;;;6.75;;
35530;SDS011;21637;53.352;-6.356;2023-10-09T03:00:29;8.30;;;6.07;;
35530;SDS011;21637;53.352;-6.356;2023-10-09T03:02:56;7.78;;;5.57;;
35530;SDS011;21637;53.352;-6.356;2023-10-09T03:05:23;10.50;;;5.80;;
35530;SDS011;21637;53.352;-6.356;2023-10-09T03:07:53;10.13;;;5.88;;
35530;SDS011;21637;53.352;-6.356;2023-10-09T03:12:50;8.93;;;6.15;;
35530;SDS011;21637;53.352;-6.356;2023-10-09T03:15:21;10.95;;;6.70;;
35530;SDS011;21637;53.352;-6.356;2023-10-09T03:17:47;9.73;;;6.28;;
35530;SDS011;21637;53.352;-6.356;2023-10-09T03:20:13;10.63;;;6.68;;
35530;SDS011;21637;53.352;-6.356;2023-10-09T03:22:44;10.13;;;6.18;;
35530;SDS011;21637;53.352;-6.356;2023-10-09T03:25:11;8.70;;;6.50;;
35530;SDS011;21637;53.352;-6.356;2023-10-09T03:27:42;9.68;;;6.47;;
35530;SDS011;21637;53.352;-6.356;2023-10-09T03:30:15;10.52;;;6.95;;
35530;SDS011;21637;53.352;-6.356;2023-10-09T03:32:51;9.57;;;6.53;;
35530;SDS011;21637;53.352;-6.356;2023-10-09T03:35:18;14.65;;;7.18;;
35530;SDS011;21637;53.352;-6.356;2023-10-09T03:40:22;10.43;;;6.78;;
35530;SDS011;21637;53.352;-6.356;2023-10-09T03:42:48;9.07;;;6.68;;
35530;SDS011;21637;53.352;-6.356;2023-10-09T03:45:14;9.57;;;7.22;;
35530;SDS011;21637;53.352;-6.356;2023-10-09T03:47:53;11.10;;;7.70;;
35530;SDS011;21637;53.352;-6.356;2023-10-09T03:50:46;12.60;;;8.20;;
35530;SDS011;21637;53.352;-6.356;2023-10-09T03:53:12;11.18;;;8.48;;
35530;SDS011;21637;53.352;-6.356;2023-10-09T03:55:39;13.65;;;8.52;;
35530;SDS011;21637;53.352;-6.356;2023-10-09T03:58:09;9.60;;;7.03;;
35530;SDS011;21637;53.352;-6.356;2023-10-09T04:00:36;9.52;;;7.50;;
35530;SDS011;21637;53.352;-6.356;2023-10-09T04:03:11;10.95;;;8.30;;
35530;SDS011;21637;53.352;-6.356;2023-10-09T04:05:39;10.98;;;7.60;;
35530;SDS011;21637;53.352;-6.356;2023-10-09T04:08:11;11.82;;;7.93;;
35530;SDS011;21637;53.352;-6.356;2023-10-09T04:10:39;10.48;;;7.30;;
35530;SDS011;21637;53.352;-6.356;2023-10-09T04:13:17;9.90;;;7.28;;
35530;SDS011;21637;53.352;-6.356;2023-10-09T04:15:48;11.80;;;8.02;;
35530;SDS011;21637;53.352;-6.356;2023-10-09T04:18:19;12.00;;;8.27;;
35530;SDS011;21637;53.352;-6.356;2023-10-09T04:20:45;8.13;;;6.78;;
35530;SDS011;21637;53.352;-6.356;2023-10-09T04:23:29;10.45;;;7.97;;
35530;SDS011;21637;53.352;-6.356;2023-10-09T04:26:21;12.40;;;8.88;;
35530;SDS011;21637;53.352;-6.356;2023-10-09T04:28:50;11.43;;;8.95;;
35530;SDS011;21637;53.352;-6.356;2023-10-09T04:31:18;14.20;;;9.23;;
35530;SDS011;21637;53.352;-6.356;2023-10-09T04:33:46;13.82;;;9.57;;
35530;SDS011;21637;53.352;-6.356;2023-10-09T04:36:31;13.80;;;9.40;;
35530;SDS011;21637;53.352;-6.356;2023-10-09T04:39:11;13.63;;;9.52;;
35530;SDS011;21637;53.352;-6.356;2023-10-09T04:41:36;10.00;;;7.97;;
35530;SDS011;21637;53.352;-6.356;2023-10-09T04:44:11;11.80;;;8.68;;
35530;SDS011;21637;53.352;-6.356;2023-10-09T04:46:49;10.23;;;7.95;;
35530;SDS011;21637;53.352;-6.356;2023-10-09T04:49:34;11.38;;;8.13;;
35530;SDS011;21637;53.352;-6.356;2023-10-09T04:52:14;13.57;;;9.35;;
35530;SDS011;21637;53.352;-6.356;2023-10-09T04:55:04;11.10;;;9.02;;
35530;SDS011;21637;53.352;-6.356;2023-10-09T04:57:33;10.75;;;8.38;;
35530;SDS011;21637;53.352;-6.356;2023-10-09T05:00:15;9.90;;;7.80;;
35530;SDS011;21637;53.352;-6.356;2023-10-09T05:02:55;11.27;;;9.13;;
35530;SDS011;21637;53.352;-6.356;2023-10-09T05:05:24;13.52;;;9.50;;
35530;SDS011;21637;53.352;-6.356;2023-10-09T05:08:06;10.87;;;7.60;;
35530;SDS011;21637;53.352;-6.356;2023-10-09T05:10:57;14.65;;;10.45;;
35530;SDS011;21637;53.352;-6.356;2023-10-09T05:13:27;11.48;;;9.93;;
35530;SDS011;21637;53.352;-6.356;2023-10-09T05:16:03;12.77;;;9.98;;
35530;SDS011;21637;53.352;-6.356;2023-10-09T05:18:41;13.13;;;9.35;;
35530;SDS011;21637;53.352;-6.356;2023-10-09T05:21:10;13.80;;;9.40;;
35530;SDS011;21637;53.352;-6.356;2023-10-09T05:23:38;11.23;;;9.05;;
35530;SDS011;21637;53.352;-6.356;2023-10-09T05:26:16;9.48;;;8.35;;
35530;SDS011;21637;53.352;-6.356;2023-10-09T05:29:01;10.45;;;7.75;;
35530;SDS011;21637;53.352;-6.356;2023-10-09T05:31:44;9.68;;;7.40;;
35530;SDS011;21637;53.352;-6.356;2023-10-09T05:34:22;9.90;;;7.60;;
35530;SDS011;21637;53.352;-6.356;2023-10-09T05:36:58;9.88;;;7.32;;
35530;SDS011;21637;53.352;-6.356;2023-10-09T05:39:43;10.32;;;7.65;;
35530;SDS011;21637;53.352;-6.356;2023-10-09T05:42:23;8.88;;;6.80;;
35530;SDS011;21637;53.352;-6.356;2023-10-09T05:44:54;9.85;;;7.93;;
35530;SDS011;21637;53.352;-6.356;2023-10-09T05:47:38;9.52;;;7.30;;
35530;SDS011;21637;53.352;-6.356;2023-10-09T05:50:13;9.55;;;7.40;;
35530;SDS011;21637;53.352;-6.356;2023-10-09T05:52:39;10.60;;;7.30;;
35530;SDS011;21637;53.352;-6.356;2023-10-09T05:55:05;11.30;;;7.15;;
35530;SDS011;21637;53.352;-6.356;2023-10-09T05:57:49;9.13;;;7.72;;
35530;SDS011;21637;53.352;-6.356;2023-10-09T06:00:34;11.10;;;8.13;;
35530;SDS011;21637;53.352;-6.356;2023-10-09T06:03:18;8.35;;;6.78;;
35530;SDS011;21637;53.352;-6.356;2023-10-09T06:05:48;13.02;;;8.70;;
35530;SDS011;21637;53.352;-6.356;2023-10-09T06:08:24;11.85;;;7.78;;
35530;SDS011;21637;53.352;-6.356;2023-10-09T06:11:09;9.90;;;8.15;;
35530;SDS011;21637;53.352;-6.356;2023-10-09T06:13:55;9.43;;;7.00;;
35530;SDS011;21637;53.352;-6.356;2023-10-09T06:16:37;22.50;;;8.07;;
35530;SDS011;21637;53.352;-6.356;2023-10-09T06:19:04;11.98;;;9.45;;
35530;SDS011;21637;53.352;-6.356;2023-10-09T06:21:36;12.82;;;9.38;;
35530;SDS011;21637;53.352;-6.356;2023-10-09T06:24:18;16.40;;;9.80;;
35530;SDS011;21637;53.352;-6.356;2023-10-09T06:26:44;13.35;;;10.00;;
35530;SDS011;21637;53.352;-6.356;2023-10-09T06:29:23;13.20;;;9.18;;
35530;SDS011;21637;53.352;-6.356;2023-10-09T06:32:11;11.98;;;9.02;;
35530;SDS011;21637;53.352;-6.356;2023-10-09T06:37:18;11.82;;;9.95;;
35530;SDS011;21637;53.352;-6.356;2023-10-09T06:39:53;13.25;;;9.43;;
35530;SDS011;21637;53.352;-6.356;2023-10-09T06:42:23;10.50;;;9.15;;
35530;SDS011;21637;53.352;-6.356;2023-10-09T06:45:01;14.18;;;9.77;;
35530;SDS011;21637;53.352;-6.356;2023-10-09T06:47:31;16.35;;;11.05;;
35530;SDS011;21637;53.352;-6.356;2023-10-09T06:50:06;14.35;;;11.20;;
35530;SDS011;21637;53.352;-6.356;2023-10-09T06:52:47;14.98;;;11.02;;
35530;SDS011;21637;53.352;-6.356;2023-10-09T06:55:36;14.95;;;11.05;;
35530;SDS011;21637;53.352;-6.356;2023-10-09T06:58:19;13.23;;;9.82;;
35530;SDS011;21637;53.352;-6.356;2023-10-09T07:00:53;10.40;;;9.30;;
35530;SDS011;21637;53.352;-6.356;2023-10-09T07:03:39;14.18;;;10.35;;
35530;SDS011;21637;53.352;-6.356;2023-10-09T07:06:17;11.95;;;8.93;;
35530;SDS011;21637;53.352;-6.356;2023-10-09T07:08:54;14.13;;;9.43;;
35530;SDS011;21637;53.352;-6.356;2023-10-09T07:11:36;13.45;;;11.05;;
35530;SDS011;21637;53.352;-6.356;2023-10-09T07:16:58;15.43;;;11.20;;
35530;SDS011;21637;53.352;-6.356;2023-10-09T07:19:43;13.27;;;10.57;;
35530;SDS011;21637;53.352;-6.356;2023-10-09T07:22:12;15.98;;;11.25;;
35530;SDS011;21637;53.352;-6.356;2023-10-09T07:24:53;17.58;;;11.20;;
35530;SDS011;21637;53.352;-6.356;2023-10-09T07:27:24;11.10;;;9.63;;
35530;SDS011;21637;53.352;-6.356;2023-10-09T07:30:09;13.52;;;9.93;;
35530;SDS011;21637;53.352;-6.356;2023-10-09T07:32:54;12.55;;;10.00;;
35530;SDS011;21637;53.352;-6.356;2023-10-09T07:35:34;11.70;;;8.77;;
35530;SDS011;21637;53.352;-6.356;2023-10-09T07:38:12;12.02;;;9.48;;
35530;SDS011;21637;53.352;-6.356;2023-10-09T07:40:51;10.90;;;9.27;;
35530;SDS011;21637;53.352;-6.356;2023-10-09T07:43:38;10.57;;;8.27;;
35530;SDS011;21637;53.352;-6.356;2023-10-09T07:46:04;8.38;;;7.47;;
35530;SDS011;21637;53.352;-6.356;2023-10-09T07:48:49;8.57;;;7.47;;
35530;SDS011;21637;53.352;-6.356;2023-10-09T07:51:21;11.93;;;8.38;;
35530;SDS011;21637;53.352;-6.356;2023-10-09T07:53:57;8.57;;;7.68;;
35530;SDS011;21637;53.352;-6.356;2023-10-09T07:56:41;11.77;;;8.10;;
35530;SDS011;21637;53.352;-6.356;2023-10-09T07:59:11;9.07;;;7.13;;
35530;SDS011;21637;53.352;-6.356;2023-10-09T08:01:43;8.80;;;7.72;;
35530;SDS011;21637;53.352;-6.356;2023-10-09T08:04:27;8.80;;;6.43;;
35530;SDS011;21637;53.352;-6.356;2023-10-09T08:07:09;10.23;;;7.28;;
35530;SDS011;21637;53.352;-6.356;2023-10-09T08:09:53;9.60;;;8.05;;
35530;SDS011;21637;53.352;-6.356;2023-10-09T08:12:37;11.10;;;7.63;;
35530;SDS011;21637;53.352;-6.356;2023-10-09T08:15:09;10.10;;;6.70;;
35530;SDS011;21637;53.352;-6.356;2023-10-09T08:17:58;9.93;;;6.90;;
35530;SDS011;21637;53.352;-6.356;2023-10-09T08:20:35;8.98;;;6.20;;
35530;SDS011;21637;53.352;-6.356;2023-10-09T08:23:36;10.05;;;7.20;;
35530;SDS011;21637;53.352;-6.356;2023-10-09T08:26:14;7.28;;;6.55;;
35530;SDS011;21637;53.352;-6.356;2023-10-09T08:28:54;7.75;;;6.95;;
35530;SDS011;21637;53.352;-6.356;2023-10-09T08:31:40;7.65;;;6.85;;
35530;SDS011;21637;53.352;-6.356;2023-10-09T08:34:21;9.85;;;7.95;;
35530;SDS011;21637;53.352;-6.356;2023-10-09T08:36:51;9.80;;;7.18;;
35530;SDS011;21637;53.352;-6.356;2023-10-09T08:39:20;8.07;;;6.60;;
35530;SDS011;21637;53.352;-6.356;2023-10-09T08:41:56;8.68;;;7.38;;
35530;SDS011;21637;53.352;-6.356;2023-10-09T08:44:26;11.27;;;8.32;;
35530;SDS011;21637;53.352;-6.356;2023-10-09T08:46:54;10.10;;;7.85;;
35530;SDS011;21637;53.352;-6.356;2023-10-09T08:49:22;8.82;;;7.10;;
35530;SDS011;21637;53.352;-6.356;2023-10-09T08:51:49;12.88;;;7.65;;
35530;SDS011;21637;53.352;-6.356;2023-10-09T08:54:17;9.80;;;7.57;;
35530;SDS011;21637;53.352;-6.356;2023-10-09T08:56:45;9.75;;;7.57;;
35530;SDS011;21637;53.352;-6.356;2023-10-09T08:59:18;6.88;;;5.93;;
35530;SDS011;21637;53.352;-6.356;2023-10-09T09:01:45;11.85;;;6.78;;
35530;SDS011;21637;53.352;-6.356;2023-10-09T09:07:03;11.80;;;6.90;;
35530;SDS011;21637;53.352;-6.356;2023-10-09T09:09:31;8.00;;;6.65;;
35530;SDS011;21637;53.352;-6.356;2023-10-09T09:11:59;7.80;;;6.30;;
35530;SDS011;21637;53.352;-6.356;2023-10-09T09:14:37;7.35;;;5.75;;
35530;SDS011;21637;53.352;-6.356;2023-10-09T09:17:04;8.30;;;6.45;;
35530;SDS011;21637;53.352;-6.356;2023-10-09T09:19:36;10.43;;;6.07;;
35530;SDS011;21637;53.352;-6.356;2023-10-09T09:22:03;9.15;;;6.70;;
35530;SDS011;21637;53.352;-6.356;2023-10-09T09:24:38;8.10;;;6.55;;
35530;SDS011;21637;53.352;-6.356;2023-10-09T09:27:04;7.75;;;6.43;;
35530;SDS011;21637;53.352;-6.356;2023-10-09T09:29:46;5.90;;;4.95;;
35530;SDS011;21637;53.352;-6.356;2023-10-09T09:32:26;7.47;;;5.28;;
35530;SDS011;21637;53.352;-6.356;2023-10-09T09:35:01;6.03;;;5.30;;
35530;SDS011;21637;53.352;-6.356;2023-10-09T09:37:33;6.30;;;5.10;;
35530;SDS011;21637;53.352;-6.356;2023-10-09T09:40:08;7.22;;;6.05;;
35530;SDS011;21637;53.352;-6.356;2023-10-09T09:42:54;10.45;;;6.25;;
35530;SDS011;21637;53.352;-6.356;2023-10-09T09:45:34;9.50;;;5.90;;
35530;SDS011;21637;53.352;-6.356;2023-10-09T09:48:04;6.97;;;5.80;;
35530;SDS011;21637;53.352;-6.356;2023-10-09T09:50:33;10.60;;;6.25;;
35530;SDS011;21637;53.352;-6.356;2023-10-09T09:53:04;5.70;;;4.78;;
35530;SDS011;21637;53.352;-6.356;2023-10-09T09:55:33;8.70;;;5.93;;
35530;SDS011;21637;53.352;-6.356;2023-10-09T09:58:06;6.15;;;5.18;;
35530;SDS011;21637;53.352;-6.356;2023-10-09T10:00:43;6.05;;;4.93;;
35530;SDS011;21637;53.352;-6.356;2023-10-09T10:03:14;8.93;;;5.25;;
35530;SDS011;21637;53.352;-6.356;2023-10-09T10:05:43;8.20;;;5.80;;
35530;SDS011;21637;53.352;-6.356;2023-10-09T10:08:14;10.10;;;6.60;;
35530;SDS011;21637;53.352;-6.356;2023-10-09T10:10:48;8.35;;;5.50;;
35530;SDS011;21637;53.352;-6.356;2023-10-09T10:16:10;9.35;;;6.22;;
35530;SDS011;21637;53.352;-6.356;2023-10-09T10:18:52;10.18;;;6.43;;
35530;SDS011;21637;53.352;-6.356;2023-10-09T10:21:43;14.20;;;9.30;;
35530;SDS011;21637;53.352;-6.356;2023-10-09T10:27:16;14.25;;;8.13;;
35530;SDS011;21637;53.352;-6.356;2023-10-09T10:32:56;12.55;;;7.05;;
35530;SDS011;21637;53.352;-6.356;2023-10-09T10:35:34;10.55;;;7.35;;
35530;SDS011;21637;53.352;-6.356;2023-10-09T10:38:29;12.48;;;7.30;;
35530;SDS011;21637;53.352;-6.356;2023-10-09T10:41:14;11.82;;;7.30;;
35530;SDS011;21637;53.352;-6.356;2023-10-09T10:46:13;9.90;;;6.13;;
35530;SDS011;21637;53.352;-6.356;2023-10-09T10:48:48;11.15;;;6.72;;
35530;SDS011;21637;53.352;-6.356;2023-10-09T10:51:27;13.35;;;7.82;;
35530;SDS011;21637;53.352;-6.356;2023-10-09T10:54:06;10.77;;;6.88;;
35530;SDS011;21637;53.352;-6.356;2023-10-09T10:56:51;8.65;;;6.85;;
35530;SDS011;21637;53.352;-6.356;2023-10-09T10:59:20;12.45;;;7.60;;
35530;SDS011;21637;53.352;-6.356;2023-10-09T11:01:49;11.68;;;6.53;;
35530;SDS011;21637;53.352;-6.356;2023-10-09T11:04:21;12.07;;;7.60;;
35530;SDS011;21637;53.352;-6.356;2023-10-09T11:07:00;10.05;;;6.22;;
35530;SDS011;21637;53.352;-6.356;2023-10-09T11:09:56;13.90;;;6.57;;
35530;SDS011;21637;53.352;-6.356;2023-10-09T11:13:04;10.90;;;6.80;;
35530;SDS011;21637;53.352;-6.356;2023-10-09T11:15:37;8.32;;;5.65;;
35530;SDS011;21637;53.352;-6.356;2023-10-09T11:18:10;9.32;;;6.57;;
35530;SDS011;21637;53.352;-6.356;2023-10-09T11:20:53;7.85;;;5.82;;
35530;SDS011;21637;53.352;-6.356;2023-10-09T11:23:41;9.82;;;6.85;;
35530;SDS011;21637;53.352;-6.356;2023-10-09T11:26:17;17.42;;;6.95;;
35530;SDS011;21637;53.352;-6.356;2023-10-09T11:28:46;12.45;;;8.23;;
35530;SDS011;21637;53.352;-6.356;2023-10-09T11:31:38;8.98;;;5.75;;
35530;SDS011;21637;53.352;-6.356;2023-10-09T11:34:17;10.70;;;6.28;;
35530;SDS011;21637;53.352;-6.356;2023-10-09T11:36:54;14.55;;;7.85;;
35530;SDS011;21637;53.352;-6.356;2023-10-09T11:39:28;8.30;;;5.82;;
35530;SDS011;21637;53.352;-6.356;2023-10-09T11:42:05;8.07;;;5.90;;
35530;SDS011;21637;53.352;-6.356;2023-10-09T11:44:42;10.35;;;7.38;;
35530;SDS011;21637;53.352;-6.356;2023-10-09T11:47:10;8.93;;;7.10;;
35530;SDS011;21637;53.352;-6.356;2023-10-09T11:49:57;8.40;;;5.77;;
35530;SDS011;21637;53.352;-6.356;2023-10-09T11:52:23;9.77;;;6.77;;
35530;SDS011;21637;53.352;-6.356;2023-10-09T11:55:11;10.15;;;6.35;;
35530;SDS011;21637;53.352;-6.356;2023-10-09T11:57:40;13.43;;;6.57;;
35530;SDS011;21637;53.352;-6.356;2023-10-09T12:00:06;10.85;;;6.63;;
35530;SDS011;21637;53.352;-6.356;2023-10-09T12:02:36;10.30;;;6.10;;
35530;SDS011;21637;53.352;-6.356;2023-10-09T12:05:09;20.05;;;7.65;;
35530;SDS011;21637;53.352;-6.356;2023-10-09T12:07:42;10.82;;;7.38;;
35530;SDS011;21637;53.352;-6.356;2023-10-09T12:10:11;11.15;;;6.63;;
35530;SDS011;21637;53.352;-6.356;2023-10-09T12:12:39;11.40;;;7.55;;
35530;SDS011;21637;53.352;-6.356;2023-10-09T12:17:42;10.38;;;6.70;;
35530;SDS011;21637;53.352;-6.356;2023-10-09T12:20:12;10.60;;;6.82;;
35530;SDS011;21637;53.352;-6.356;2023-10-09T12:23:00;16.70;;;7.60;;
35530;SDS011;21637;53.352;-6.356;2023-10-09T12:27:56;9.15;;;6.18;;
35530;SDS011;21637;53.352;-6.356;2023-10-09T12:30:23;11.98;;;6.50;;
35530;SDS011;21637;53.352;-6.356;2023-10-09T12:32:55;9.15;;;5.97;;
35530;SDS011;21637;53.352;-6.356;2023-10-09T12:35:23;13.15;;;7.00;;
35530;SDS011;21637;53.352;-6.356;2023-10-09T12:37:53;10.63;;;5.43;;
35530;SDS011;21637;53.352;-6.356;2023-10-09T12:40:20;7.80;;;5.50;;
35530;SDS011;21637;53.352;-6.356;2023-10-09T12:42:52;8.65;;;4.93;;
35530;SDS011;21637;53.352;-6.356;2023-10-09T12:45:18;12.77;;;5.72;;
35530;SDS011;21637;53.352;-6.356;2023-10-09T12:47:45;11.45;;;5.68;;
35530;SDS011;21637;53.352;-6.356;2023-10-09T12:50:12;7.95;;;5.20;;
35530;SDS011;21637;53.352;-6.356;2023-10-09T12:52:39;8.02;;;5.15;;
35530;SDS011;21637;53.352;-6.356;2023-10-09T12:55:05;10.30;;;5.63;;
35530;SDS011;21637;53.352;-6.356;2023-10-09T12:57:35;11.13;;;5.15;;
35530;SDS011;21637;53.352;-6.356;2023-10-09T13:00:01;10.32;;;5.53;;
35530;SDS011;21637;53.352;-6.356;2023-10-09T13:02:36;8.73;;;4.65;;
35530;SDS011;21637;53.352;-6.356;2023-10-09T13:05:02;13.82;;;6.00;;
35530;SDS011;21637;53.352;-6.356;2023-10-09T13:07:30;17.42;;;7.35;;
35530;SDS011;21637;53.352;-6.356;2023-10-09T13:09:56;10.38;;;5.40;;
35530;SDS011;21637;53.352;-6.356;2023-10-09T13:12:34;9.40;;;5.57;;
35530;SDS011;21637;53.352;-6.356;2023-10-09T13:15:10;6.85;;;4.90;;
35530;SDS011;21637;53.352;-6.356;2023-10-09T13:17:36;10.48;;;6.03;;
35530;SDS011;21637;53.352;-6.356;2023-10-09T13:20:03;7.95;;;5.60;;
35530;SDS011;21637;53.352;-6.356;2023-10-09T13:22:41;8.77;;;6.03;;
35530;SDS011;21637;53.352;-6.356;2023-10-09T13:25:10;10.15;;;6.30;;
35530;SDS011;21637;53.352;-6.356;2023-10-09T13:27:42;13.27;;;6.72;;
35530;SDS011;21637;53.352;-6.356;2023-10-09T13:30:16;13.73;;;6.30;;
35530;SDS011;21637;53.352;-6.356;2023-10-09T13:32:49;11.38;;;5.90;;
35530;SDS011;21637;53.352;-6.356;2023-10-09T13:35:16;8.48;;;5.80;;
35530;SDS011;21637;53.352;-6.356;2023-10-09T13:37:43;12.50;;;5.85;;
35530;SDS011;21637;53.352;-6.356;2023-10-09T13:40:15;9.63;;;6.10;;
35530;SDS011;21637;53.352;-6.356;2023-10-09T13:42:52;8.65;;;6.43;;
35530;SDS011;21637;53.352;-6.356;2023-10-09T13:45:24;9.02;;;5.50;;
35530;SDS011;21637;53.352;-6.356;2023-10-09T13:47:52;9.65;;;6.38;;
35530;SDS011;21637;53.352;-6.356;2023-10-09T13:50:24;11.25;;;5.05;;
35530;SDS011;21637;53.352;-6.356;2023-10-09T13:52:57;10.52;;;5.55;;
35530;SDS011;21637;53.352;-6.356;2023-10-09T13:55:23;10.75;;;6.78;;
35530;SDS011;21637;53.352;-6.356;2023-10-09T13:57:56;10.43;;;6.03;;
35530;SDS011;21637;53.352;-6.356;2023-10-09T14:00:22;11.98;;;5.78;;
35530;SDS011;21637;53.352;-6.356;2023-10-09T14:02:59;10.55;;;7.00;;
35530;SDS011;21637;53.352;-6.356;2023-10-09T14:05:36;8.20;;;5.68;;
35530;SDS011;21637;53.352;-6.356;2023-10-09T14:08:17;11.50;;;6.65;;
35530;SDS011;21637;53.352;-6.356;2023-10-09T14:10:44;8.32;;;6.18;;
35530;SDS011;21637;53.352;-6.356;2023-10-09T14:13:13;9.80;;;6.38;;
35530;SDS011;21637;53.352;-6.356;2023-10-09T14:15:41;11.85;;;7.30;;
35530;SDS011;21637;53.352;-6.356;2023-10-09T14:18:08;13.48;;;7.45;;
35530;SDS011;21637;53.352;-6.356;2023-10-09T14:20:37;11.13;;;6.53;;
35530;SDS011;21637;53.352;-6.356;2023-10-09T14:23:03;12.23;;;8.05;;
35530;SDS011;21637;53.352;-6.356;2023-10-09T14:25:34;11.77;;;7.38;;
35530;SDS011;21637;53.352;-6.356;2023-10-09T14:28:12;7.63;;;6.38;;
35530;SDS011;21637;53.352;-6.356;2023-10-09T14:30:43;12.43;;;6.78;;
35530;SDS011;21637;53.352;-6.356;2023-10-09T14:33:12;57.17;;;10.20;;
35530;SDS011;21637;53.352;-6.356;2023-10-09T14:35:41;10.05;;;6.10;;
35530;SDS011;21637;53.352;-6.356;2023-10-09T14:38:10;9.43;;;5.70;;
35530;SDS011;21637;53.352;-6.356;2023-10-09T14:40:41;8.07;;;6.10;;
35530;SDS011;21637;53.352;-6.356;2023-10-09T14:43:07;6.88;;;5.30;;
35530;SDS011;21637;53.352;-6.356;2023-10-09T14:45:36;9.45;;;6.40;;
35530;SDS011;21637;53.352;-6.356;2023-10-09T14:48:02;14.95;;;6.75;;
35530;SDS011;21637;53.352;-6.356;2023-10-09T14:50:28;12.40;;;6.38;;
35530;SDS011;21637;53.352;-6.356;2023-10-09T14:52:54;11.85;;;6.97;;
35530;SDS011;21637;53.352;-6.356;2023-10-09T14:55:20;11.30;;;6.50;;
35530;SDS011;21637;53.352;-6.356;2023-10-09T14:57:54;8.55;;;6.50;;
35530;SDS011;21637;53.352;-6.356;2023-10-09T15:00:20;12.05;;;7.63;;
35530;SDS011;21637;53.352;-6.356;2023-10-09T15:02:49;10.05;;;6.78;;
35530;SDS011;21637;53.352;-6.356;2023-10-09T15:05:18;8.85;;;6.72;;
35530;SDS011;21637;53.352;-6.356;2023-10-09T15:07:43;8.23;;;5.35;;
35530;SDS011;21637;53.352;-6.356;2023-10-09T15:10:10;8.35;;;5.97;;
35530;SDS011;21637;53.352;-6.356;2023-10-09T15:12:40;10.50;;;6.07;;
35530;SDS011;21637;53.352;-6.356;2023-10-09T15:15:08;8.80;;;6.53;;
35530;SDS011;21637;53.352;-6.356;2023-10-09T15:17:41;8.30;;;5.97;;
35530;SDS011;21637;53.352;-6.356;2023-10-09T15:20:13;8.25;;;6.40;;
35530;SDS011;21637;53.352;-6.356;2023-10-09T15:22:43;10.50;;;7.45;;
35530;SDS011;21637;53.352;-6.356;2023-10-09T15:25:09;10.63;;;8.18;;
35530;SDS011;21637;53.352;-6.356;2023-10-09T15:27:45;12.80;;;8.07;;
35530;SDS011;21637;53.352;-6.356;2023-10-09T15:30:11;10.93;;;7.22;;
35530;SDS011;21637;53.352;-6.356;2023-10-09T15:32:42;12.77;;;7.93;;
35530;SDS011;21637;53.352;-6.356;2023-10-09T15:35:08;12.38;;;8.45;;